Time;durP1;ratioP1;P1;durP2;ratioP2;P2;SDS_P1;SDS_P2;PMS_P1;PMS_P2;Temp;Humidity;BMP_temperature;BMP_pressure;BME280_temperature;BME280_humidity;BME280_pressure;Samples;Min_cycle;Max_cycle;Signal;HPM_P1;HPM_P2
2024/03/04 00:00:52;;;;;;;6.10;5.90;;;23.70;1.00;;;;;;2608664;54;20185;-66
2024/03/04 00:03:17;;;;;;;6.00;5.80;;;23.70;1.00;;;;;;2608092;54;20410;-66
2024/03/04 00:05:43;;;;;;;5.87;5.67;;;23.70;1.00;;;;;;2607633;54;20162;-64
2024/03/04 00:08:09;;;;;;;5.90;5.70;;;23.70;1.00;;;;;;2608620;54;20165;-66
2024/03/04 00:10:35;;;;;;;5.97;5.77;;;23.70;1.00;;;;;;2609494;54;20413;-66
2024/03/04 00:13:00;;;;;;;5.90;5.70;;;23.60;1.00;;;;;;2609255;39;20274;-67
2024/03/04 00:15:27;;;;;;;7.83;7.53;;;23.60;1.00;;;;;;2608134;54;20154;-67
2024/03/04 00:17:52;;;;;;;5.67;5.47;;;23.60;1.00;;;;;;2609119;54;20266;-66
2024/03/04 00:20:18;;;;;;;6.00;5.80;;;23.60;1.00;;;;;;2608519;39;21520;-67
2024/03/04 00:22:47;;;;;;;6.57;6.37;;;23.60;1.00;;;;;;2609381;54;20191;-67
2024/03/04 00:25:15;;;;;;;7.90;7.60;;;23.60;1.00;;;;;;2607345;54;20416;-67
2024/03/04 00:27:45;;;;;;;5.90;5.70;;;23.60;1.00;;;;;;2608235;54;20396;-66
2024/03/04 00:30:12;;;;;;;6.00;5.80;;;23.50;1.00;;;;;;2610077;47;20418;-67
2024/03/04 00:32:38;;;;;;;6.07;5.87;;;23.50;1.00;;;;;;2611589;54;20425;-67
2024/03/04 00:35:09;;;;;;;5.67;5.47;;;23.50;1.00;;;;;;2609730;39;20877;-68
2024/03/04 00:37:35;;;;;;;5.73;5.53;;;23.50;1.00;;;;;;2609345;54;20158;-68
2024/03/04 00:40:05;;;;;;;5.80;5.60;;;23.50;1.00;;;;;;2610040;54;21123;-67
2024/03/04 00:42:32;;;;;;;5.47;5.27;;;23.50;1.00;;;;;;2609014;39;21346;-67
2024/03/04 00:45:00;;;;;;;6.13;5.93;;;23.50;1.00;;;;;;2608578;54;20396;-66
2024/03/04 00:47:27;;;;;;;5.87;5.67;;;23.50;1.00;;;;;;2608644;54;20472;-67
2024/03/04 00:49:52;;;;;;;6.07;5.87;;;23.50;1.00;;;;;;2608615;54;20411;-67
2024/03/04 00:52:18;;;;;;;5.90;5.70;;;23.50;1.00;;;;;;2609038;54;20456;-68
2024/03/04 00:54:44;;;;;;;5.60;5.40;;;23.40;1.00;;;;;;2608676;47;20258;-67
2024/03/04 00:57:10;;;;;;;5.90;5.70;;;23.40;1.00;;;;;;2608730;54;20289;-67
2024/03/04 00:59:37;;;;;;;5.70;5.50;;;23.40;1.00;;;;;;2608931;54;20457;-67
2024/03/04 01:02:06;;;;;;;5.70;5.50;;;23.40;1.00;;;;;;2607163;54;20404;-67
2024/03/04 01:04:33;;;;;;;5.90;5.70;;;23.40;1.00;;;;;;2607656;54;20406;-67
2024/03/04 01:06:59;;;;;;;6.13;5.93;;;23.40;1.00;;;;;;2607685;54;20465;-67
2024/03/04 01:09:24;;;;;;;6.43;6.23;;;23.40;1.00;;;;;;2609016;54;20396;-71
2024/03/04 01:11:50;;;;;;;6.30;6.10;;;23.40;1.00;;;;;;2609545;47;20177;-71
2024/03/04 01:14:16;;;;;;;6.20;6.00;;;23.40;1.00;;;;;;2608693;46;20168;-71
2024/03/04 01:16:41;;;;;;;5.90;5.70;;;23.30;1.00;;;;;;2609436;54;20165;-71
2024/03/04 01:19:07;;;;;;;5.90;5.70;;;23.30;1.00;;;;;;2608486;54;20173;-71
2024/03/04 01:21:33;;;;;;;6.07;5.87;;;23.30;1.00;;;;;;2608827;54;20204;-69
2024/03/04 01:23:59;;;;;;;6.03;5.83;;;23.30;1.00;;;;;;2609387;54;20457;-69
2024/03/04 01:26:24;;;;;;;6.57;6.37;;;23.30;1.00;;;;;;2608319;54;20202;-70
2024/03/04 01:28:50;;;;;;;7.43;7.13;;;23.30;1.00;;;;;;2609614;54;20674;-67
2024/03/04 01:31:18;;;;;;;6.33;6.13;;;23.30;1.00;;;;;;2608705;54;20171;-67
2024/03/04 01:33:47;;;;;;;6.30;6.10;;;23.20;1.00;;;;;;2609196;54;20777;-66
2024/03/04 01:36:13;;;;;;;6.47;6.27;;;23.20;1.00;;;;;;2610564;39;21063;-67
2024/03/04 01:38:38;;;;;;;6.50;6.30;;;23.20;1.00;;;;;;2610104;54;20507;-64
2024/03/04 01:41:04;;;;;;;6.60;6.40;;;23.20;1.00;;;;;;2611337;47;20421;-66
2024/03/04 01:43:30;;;;;;;6.60;6.40;;;23.20;1.00;;;;;;2609468;54;20178;-67
2024/03/04 01:45:56;;;;;;;6.30;6.10;;;23.20;1.00;;;;;;2609663;54;20427;-65
2024/03/04 01:48:22;;;;;;;6.27;6.07;;;23.20;1.00;;;;;;2611576;39;20235;-67
2024/03/04 01:50:51;;;;;;;6.40;6.20;;;23.20;1.00;;;;;;2610616;39;20434;-66
2024/03/04 01:53:18;;;;;;;7.23;7.03;;;23.20;1.00;;;;;;2608731;47;20411;-66
2024/03/04 01:56:02;;;;;;;6.20;6.00;;;23.20;1.00;;;;;;2607561;47;20940;-67
2024/03/04 01:58:30;;;;;;;6.80;6.60;;;23.20;1.00;;;;;;2608605;47;20440;-66
2024/03/04 02:00:59;;;;;;;6.30;6.10;;;23.20;1.00;;;;;;2606765;54;20402;-67
2024/03/04 02:03:26;;;;;;;6.83;6.63;;;23.10;1.00;;;;;;2606928;47;20434;-66
2024/03/04 02:05:53;;;;;;;6.67;6.47;;;23.10;1.00;;;;;;2607169;54;20498;-68
2024/03/04 02:08:19;;;;;;;7.07;6.87;;;23.10;1.00;;;;;;2608544;39;20836;-65
2024/03/04 02:10:47;;;;;;;6.73;6.53;;;23.10;1.00;;;;;;2608274;54;20426;-67
2024/03/04 02:13:13;;;;;;;6.63;6.43;;;23.10;1.00;;;;;;2609549;54;20409;-66
2024/03/04 02:15:39;;;;;;;7.10;6.90;;;23.10;1.00;;;;;;2608715;54;20960;-66
2024/03/04 02:18:09;;;;;;;6.90;6.70;;;23.10;1.00;;;;;;2609520;54;20147;-67
2024/03/04 02:20:42;;;;;;;6.27;6.07;;;23.10;1.00;;;;;;2607878;54;20451;-67
2024/03/04 02:23:09;;;;;;;7.07;6.87;;;23.10;1.00;;;;;;2609294;54;20410;-68
2024/03/04 02:25:35;;;;;;;6.90;6.70;;;23.10;1.00;;;;;;2608055;54;20397;-68
2024/03/04 02:28:04;;;;;;;7.00;6.80;;;23.10;1.00;;;;;;2608695;54;20402;-66
2024/03/04 02:30:31;;;;;;;6.10;5.90;;;23.10;1.00;;;;;;2608412;50;21033;-62
2024/03/04 02:32:58;;;;;;;6.77;6.57;;;23.00;1.00;;;;;;2607833;54;20982;-62
2024/03/04 02:35:29;;;;;;;6.07;5.87;;;23.00;1.00;;;;;;2608747;54;20476;-63
2024/03/04 02:37:55;;;;;;;6.30;6.10;;;23.00;1.00;;;;;;2608372;54;20418;-61
2024/03/04 02:40:21;;;;;;;6.77;6.57;;;23.00;1.00;;;;;;2608717;54;20425;-63
2024/03/04 02:42:50;;;;;;;6.00;5.80;;;23.00;1.00;;;;;;2609605;39;20827;-62
2024/03/04 02:45:16;;;;;;;6.00;5.80;;;23.00;1.00;;;;;;2608234;47;20419;-62
2024/03/04 02:47:41;;;;;;;8.20;7.80;;;23.00;1.00;;;;;;2608992;39;20949;-63
2024/03/04 02:50:07;;;;;;;7.00;6.80;;;23.00;1.00;;;;;;2607526;50;20172;-71
2024/03/04 02:52:33;;;;;;;8.30;8.00;;;23.00;1.00;;;;;;2609449;39;20520;-71
2024/03/04 02:54:59;;;;;;;6.60;6.40;;;23.00;1.00;;;;;;2609743;54;20470;-70
2024/03/04 02:57:25;;;;;;;6.60;6.40;;;23.00;1.00;;;;;;2612013;54;20399;-69
2024/03/04 02:59:51;;;;;;;8.50;8.20;;;23.00;1.00;;;;;;2608300;46;20424;-71
2024/03/04 03:02:17;;;;;;;7.07;6.87;;;23.00;1.00;;;;;;2608713;47;20419;-71
2024/03/04 03:04:43;;;;;;;6.90;6.70;;;23.00;1.00;;;;;;2609585;54;20249;-71
2024/03/04 03:07:09;;;;;;;6.70;6.50;;;23.00;1.00;;;;;;2608346;54;20421;-72
2024/03/04 03:09:35;;;;;;;7.23;7.03;;;23.00;1.00;;;;;;2610259;39;20779;-70
2024/03/04 03:12:01;;;;;;;6.60;6.40;;;23.00;1.00;;;;;;2609512;54;20377;-71
2024/03/04 03:14:27;;;;;;;6.77;6.57;;;23.00;1.00;;;;;;2610613;54;20161;-72
2024/03/04 03:16:52;;;;;;;6.70;6.50;;;23.00;1.00;;;;;;2608965;39;21302;-71
2024/03/04 03:19:23;;;;;;;7.40;7.20;;;23.00;1.00;;;;;;2609583;54;20395;-70
2024/03/04 03:21:51;;;;;;;6.93;6.73;;;23.00;1.00;;;;;;2610287;54;20165;-70
2024/03/04 03:24:17;;;;;;;7.00;6.80;;;23.00;1.00;;;;;;2609259;54;20459;-70
2024/03/04 03:26:43;;;;;;;6.80;6.60;;;23.00;1.00;;;;;;2609224;54;20972;-71
2024/03/04 03:29:09;;;;;;;6.50;6.30;;;23.00;1.00;;;;;;2610246;54;20184;-71
2024/03/04 03:31:36;;;;;;;6.40;6.20;;;23.00;1.00;;;;;;2609868;47;20438;-71
2024/03/04 03:34:01;;;;;;;5.90;5.70;;;23.00;1.00;;;;;;2610163;54;20403;-71
2024/03/04 03:36:27;;;;;;;6.10;5.90;;;23.00;1.00;;;;;;2609585;54;20454;-71
2024/03/04 03:38:52;;;;;;;7.00;6.80;;;23.00;1.00;;;;;;2609397;54;20688;-71
2024/03/04 03:41:18;;;;;;;6.57;6.37;;;22.90;1.00;;;;;;2610165;54;20225;-71
2024/03/04 03:43:44;;;;;;;6.50;6.30;;;22.90;1.00;;;;;;2609148;54;20152;-70
2024/03/04 03:46:09;;;;;;;6.50;6.30;;;22.90;1.00;;;;;;2609903;54;20173;-72
2024/03/04 03:48:35;;;;;;;6.30;6.10;;;22.90;1.00;;;;;;2609360;54;20851;-62
2024/03/04 03:51:01;;;;;;;6.13;5.93;;;22.90;1.00;;;;;;2608855;47;20170;-62
2024/03/04 03:53:26;;;;;;;6.43;6.23;;;22.90;1.00;;;;;;2609112;54;20278;-61
2024/03/04 03:55:52;;;;;;;6.20;6.00;;;22.90;1.00;;;;;;2609161;54;20160;-62
2024/03/04 03:58:18;;;;;;;6.20;6.00;;;22.90;1.00;;;;;;2609037;50;20268;-61
2024/03/04 04:00:44;;;;;;;6.63;6.43;;;22.90;1.00;;;;;;2607379;54;20149;-61
2024/03/04 04:03:11;;;;;;;6.70;6.50;;;22.80;1.00;;;;;;2609042;54;20410;-61
2024/03/04 04:05:37;;;;;;;6.53;6.33;;;22.90;1.00;;;;;;2608000;54;20951;-62
2024/03/04 04:08:03;;;;;;;6.30;6.10;;;22.90;1.00;;;;;;2611451;54;20491;-61
2024/03/04 04:10:29;;;;;;;6.10;5.90;;;22.90;1.00;;;;;;2608961;54;20157;-62
2024/03/04 04:12:54;;;;;;;6.50;6.30;;;22.80;1.00;;;;;;2609415;54;20502;-62
2024/03/04 04:15:20;;;;;;;6.70;6.50;;;22.80;1.00;;;;;;2607855;54;20176;-61
2024/03/04 04:17:46;;;;;;;6.40;6.20;;;22.80;1.00;;;;;;2608974;54;20165;-61
2024/03/04 04:20:12;;;;;;;6.00;5.80;;;22.80;1.00;;;;;;2608948;54;20282;-60
2024/03/04 04:22:37;;;;;;;6.80;6.60;;;22.80;1.00;;;;;;2608678;54;20213;-62
2024/03/04 04:25:03;;;;;;;6.23;6.03;;;22.80;1.00;;;;;;2609057;47;20428;-62
2024/03/04 04:27:29;;;;;;;5.90;5.70;;;22.80;1.00;;;;;;2608975;54;20251;-61
2024/03/04 04:29:55;;;;;;;6.40;6.20;;;22.80;1.00;;;;;;2608831;39;22255;-62
2024/03/04 04:32:20;;;;;;;6.40;6.20;;;22.80;1.00;;;;;;2608414;54;20253;-62
2024/03/04 04:34:46;;;;;;;6.60;6.40;;;22.80;1.00;;;;;;2607743;54;20755;-62
2024/03/04 04:37:12;;;;;;;7.00;6.80;;;22.80;1.00;;;;;;2607143;47;20198;-62
2024/03/04 04:39:38;;;;;;;6.40;6.20;;;22.80;1.00;;;;;;2608952;54;20167;-62
2024/03/04 04:42:05;;;;;;;7.23;7.00;;;22.80;1.00;;;;;;2609610;39;20732;-61
2024/03/04 04:44:31;;;;;;;5.87;5.67;;;22.80;1.00;;;;;;2609800;39;20752;-61
2024/03/04 04:46:57;;;;;;;6.30;6.10;;;22.80;1.00;;;;;;2608641;39;20805;-62
2024/03/04 04:49:22;;;;;;;6.40;6.20;;;22.80;1.00;;;;;;2608370;47;20179;-62
2024/03/04 04:51:48;;;;;;;6.00;5.80;;;22.80;1.00;;;;;;2608611;54;20144;-62
2024/03/04 04:54:15;;;;;;;7.27;7.00;;;22.80;1.00;;;;;;2608720;54;20162;-61
2024/03/04 04:56:41;;;;;;;6.40;6.20;;;22.80;1.00;;;;;;2609167;39;20550;-61
2024/03/04 04:59:07;;;;;;;6.93;6.63;;;22.80;1.00;;;;;;2609477;46;20476;-71
2024/03/04 05:01:33;;;;;;;5.73;5.53;;;22.80;1.00;;;;;;2607320;54;20457;-71
2024/03/04 05:03:59;;;;;;;5.77;5.57;;;22.80;1.00;;;;;;2607645;54;20456;-73
2024/03/04 05:06:24;;;;;;;6.20;6.00;;;22.80;1.00;;;;;;2609341;47;20521;-72
2024/03/04 05:08:50;;;;;;;5.70;5.50;;;22.80;1.00;;;;;;2608449;54;20435;-68
2024/03/04 05:11:16;;;;;;;5.90;5.70;;;22.80;1.00;;;;;;2609450;47;20169;-68
2024/03/04 05:13:43;;;;;;;5.40;5.20;;;22.80;1.00;;;;;;2608873;47;20464;-67
2024/03/04 05:16:10;;;;;;;6.20;6.00;;;22.80;1.00;;;;;;2611774;54;20519;-66
2024/03/04 05:18:35;;;;;;;6.20;6.00;;;22.90;1.00;;;;;;2609826;47;20508;-68
2024/03/04 05:21:03;;;;;;;5.80;5.60;;;22.80;1.00;;;;;;2609468;54;20426;-67
2024/03/04 05:23:29;;;;;;;5.87;5.67;;;22.90;1.00;;;;;;2610260;54;20760;-69
2024/03/04 05:25:55;;;;;;;6.00;5.80;;;22.90;1.00;;;;;;2610184;54;20422;-68
2024/03/04 05:28:20;;;;;;;6.10;5.90;;;22.90;1.00;;;;;;2612052;47;20554;-68
2024/03/04 05:30:46;;;;;;;6.00;5.80;;;22.90;1.00;;;;;;2611414;54;20158;-69
2024/03/04 05:33:11;;;;;;;6.00;5.80;;;22.90;1.00;;;;;;2612547;54;20156;-69
2024/03/04 05:35:37;;;;;;;5.53;5.33;;;22.90;1.00;;;;;;2608724;39;20703;-69
2024/03/04 05:38:03;;;;;;;6.40;6.20;;;22.90;1.00;;;;;;2608054;54;20294;-69
2024/03/04 05:40:29;;;;;;;6.00;5.80;;;22.90;1.00;;;;;;2608236;54;21465;-67
2024/03/04 05:42:54;;;;;;;5.60;5.40;;;22.90;1.00;;;;;;2609389;39;20346;-68
2024/03/04 05:45:20;;;;;;;5.83;5.63;;;22.90;1.00;;;;;;2608673;54;20176;-70
2024/03/04 05:47:46;;;;;;;6.20;6.00;;;22.90;1.00;;;;;;2609049;54;20477;-68
2024/03/04 05:50:14;;;;;;;6.17;5.97;;;22.90;1.00;;;;;;2608423;54;20152;-68
2024/03/04 05:52:41;;;;;;;5.60;5.40;;;22.90;1.00;;;;;;2608901;54;20156;-69
2024/03/04 05:55:07;;;;;;;5.47;5.27;;;22.90;1.00;;;;;;2607003;47;20415;-68
2024/03/04 05:57:34;;;;;;;5.90;5.70;;;22.90;1.00;;;;;;2608730;39;20788;-68
2024/03/04 06:00:03;;;;;;;5.93;5.73;;;22.90;1.00;;;;;;2607966;54;20528;-68
2024/03/04 06:02:29;;;;;;;5.47;5.27;;;22.90;1.00;;;;;;2607254;54;20408;-68
2024/03/04 06:04:55;;;;;;;5.27;5.07;;;22.90;1.00;;;;;;2607062;54;20413;-67
2024/03/04 06:07:21;;;;;;;5.17;4.97;;;22.90;1.00;;;;;;2607645;54;20992;-69
2024/03/04 06:09:47;;;;;;;5.50;5.30;;;22.90;1.00;;;;;;2609570;39;20491;-66
2024/03/04 06:12:12;;;;;;;5.30;5.10;;;22.90;1.00;;;;;;2607963;47;20973;-64
2024/03/04 06:14:39;;;;;;;6.20;6.00;;;23.00;1.00;;;;;;2608618;54;20153;-67
2024/03/04 06:17:09;;;;;;;6.03;5.83;;;23.00;1.00;;;;;;2608973;54;20154;-66
2024/03/04 06:19:34;;;;;;;6.60;6.40;;;23.00;1.00;;;;;;2608139;39;20564;-64
2024/03/04 06:22:00;;;;;;;6.57;6.37;;;23.00;1.00;;;;;;2605634;54;20399;-65
2024/03/04 06:24:26;;;;;;;5.50;5.30;;;23.00;1.00;;;;;;2610265;54;20762;-65
2024/03/04 06:26:51;;;;;;;5.47;5.27;;;23.00;1.00;;;;;;2610776;39;20508;-66
2024/03/04 06:29:17;;;;;;;6.00;5.80;;;23.00;1.00;;;;;;2611731;54;20148;-67
2024/03/04 06:31:43;;;;;;;7.50;7.30;;;23.00;1.00;;;;;;2611392;54;20209;-69
2024/03/04 06:34:09;;;;;;;7.60;7.40;;;23.20;1.00;;;;;;2611710;54;20175;-71
2024/03/04 06:36:40;;;;;;;7.40;7.20;;;23.40;1.00;;;;;;2611182;54;20438;-69
2024/03/04 06:39:06;;;;;;;7.20;7.00;;;23.60;1.00;;;;;;2611295;54;20165;-69
2024/03/04 06:41:31;;;;;;;4.87;4.67;;;23.70;1.00;;;;;;2613128;54;20958;-69
2024/03/04 06:43:57;;;;;;;5.83;5.63;;;24.20;1.00;;;;;;2610888;54;20168;-74
2024/03/04 06:46:22;;;;;;;5.00;4.80;;;24.50;1.00;;;;;;2610035;54;20788;-68
2024/03/04 06:48:49;;;;;;;5.40;5.20;;;24.20;1.00;;;;;;2608651;54;20147;-69
2024/03/04 06:51:15;;;;;;;4.60;4.50;;;23.90;1.00;;;;;;2607627;54;20167;-70
2024/03/04 06:53:41;;;;;;;4.60;4.50;;;23.70;1.00;;;;;;2611259;54;20389;-70
2024/03/04 06:56:11;;;;;;;4.60;4.50;;;23.40;1.00;;;;;;2609995;54;20172;-70
2024/03/04 06:58:37;;;;;;;4.70;4.60;;;23.20;1.00;;;;;;2610472;54;20156;-71
2024/03/04 07:01:04;;;;;;;4.50;4.40;;;23.20;1.00;;;;;;2610289;54;20398;-70
2024/03/04 07:03:30;;;;;;;5.50;5.30;;;23.10;1.00;;;;;;2610496;51;20468;-70
2024/03/04 07:05:55;;;;;;;3.90;3.80;;;23.10;1.00;;;;;;2610711;54;20389;-70
2024/03/04 07:08:21;;;;;;;5.43;5.23;;;23.10;1.00;;;;;;2611496;54;20300;-69
2024/03/04 07:10:46;;;;;;;5.07;4.87;;;23.00;1.00;;;;;;2611468;54;20170;-70
2024/03/04 07:13:12;;;;;;;4.70;4.60;;;23.00;1.00;;;;;;2612238;54;20159;-70
2024/03/04 07:15:38;;;;;;;4.50;4.40;;;23.00;1.00;;;;;;2611885;54;20244;-71
2024/03/04 07:18:04;;;;;;;4.97;4.77;;;23.00;1.00;;;;;;2611702;39;20585;-71
2024/03/04 07:20:30;;;;;;;5.20;5.00;;;23.00;1.00;;;;;;2611273;54;20185;-75
2024/03/04 07:22:55;;;;;;;4.53;4.43;;;22.90;1.00;;;;;;2610830;54;20407;-75
2024/03/04 07:25:21;;;;;;;4.87;4.70;;;22.90;1.00;;;;;;2611804;54;20156;-75
2024/03/04 07:27:47;;;;;;;4.67;4.57;;;22.90;1.00;;;;;;2610332;54;20169;-76
2024/03/04 07:30:13;;;;;;;4.40;4.30;;;22.90;1.00;;;;;;2610318;47;20274;-65
2024/03/04 07:32:38;;;;;;;6.23;6.03;;;22.90;1.00;;;;;;2611456;54;20284;-64
2024/03/04 07:35:05;;;;;;;5.30;5.10;;;22.90;1.00;;;;;;2611092;54;21011;-65
2024/03/04 07:37:33;;;;;;;4.90;4.70;;;22.90;1.00;;;;;;2611603;54;20157;-65
2024/03/04 07:39:59;;;;;;;5.47;5.27;;;22.90;1.00;;;;;;2611883;54;20436;-64
2024/03/04 07:42:25;;;;;;;5.00;4.80;;;22.90;1.00;;;;;;2611450;54;20514;-65
2024/03/04 07:44:51;;;;;;;5.50;5.30;;;22.80;1.00;;;;;;2612720;54;20169;-64
2024/03/04 07:47:16;;;;;;;5.40;5.20;;;22.90;1.00;;;;;;2610962;54;20530;-66
2024/03/04 07:49:42;;;;;;;5.00;4.80;;;22.80;1.00;;;;;;2610151;54;20153;-65
2024/03/04 07:52:08;;;;;;;5.00;4.80;;;22.80;1.00;;;;;;2612318;54;20795;-65
2024/03/04 07:54:34;;;;;;;4.80;4.60;;;22.90;1.00;;;;;;2611052;54;20169;-66
2024/03/04 07:56:59;;;;;;;5.00;4.80;;;22.80;1.00;;;;;;2610203;54;20261;-67
2024/03/04 07:59:25;;;;;;;5.13;4.93;;;22.80;1.00;;;;;;2610336;54;20180;-66
2024/03/04 08:01:50;;;;;;;5.00;4.80;;;22.80;1.00;;;;;;2609582;54;20795;-64
2024/03/04 08:04:20;;;;;;;6.07;5.87;;;22.80;1.00;;;;;;2610963;54;20162;-68
2024/03/04 08:06:46;;;;;;;5.00;4.80;;;22.80;1.00;;;;;;2610794;54;20155;-64
2024/03/04 08:09:14;;;;;;;5.10;4.90;;;22.80;1.00;;;;;;2610524;47;20425;-65
2024/03/04 08:11:40;;;;;;;5.00;4.80;;;22.80;1.00;;;;;;2611184;54;20534;-63
2024/03/04 08:14:05;;;;;;;5.10;4.90;;;22.80;1.00;;;;;;2610828;54;20429;-62
2024/03/04 08:16:31;;;;;;;4.60;4.50;;;22.80;1.00;;;;;;2611204;54;20154;-62
2024/03/04 08:18:56;;;;;;;5.00;4.80;;;22.80;1.00;;;;;;2611568;54;20192;-63
2024/03/04 08:21:22;;;;;;;4.93;4.73;;;22.80;1.00;;;;;;2610486;54;20152;-62
2024/03/04 08:23:48;;;;;;;5.27;5.07;;;22.80;1.00;;;;;;2610656;47;20305;-63
2024/03/04 08:26:13;;;;;;;5.57;5.37;;;22.80;1.00;;;;;;2611768;54;20160;-62
2024/03/04 08:28:40;;;;;;;5.27;5.07;;;22.80;1.00;;;;;;2610545;54;20520;-70
2024/03/04 08:31:06;;;;;;;5.13;4.93;;;22.80;1.00;;;;;;2611588;54;20153;-71
2024/03/04 08:33:33;;;;;;;5.40;5.20;;;22.80;1.00;;;;;;2611032;54;20524;-70
2024/03/04 08:35:59;;;;;;;5.13;4.93;;;22.80;1.00;;;;;;2609819;54;20483;-71
2024/03/04 08:38:26;;;;;;;4.47;4.37;;;22.80;1.00;;;;;;2610763;54;20420;-63
2024/03/04 08:40:52;;;;;;;5.57;5.37;;;22.80;1.00;;;;;;2610173;54;20179;-63
2024/03/04 08:43:19;;;;;;;5.10;4.90;;;22.80;1.00;;;;;;2610105;47;20440;-63
2024/03/04 08:45:44;;;;;;;5.30;5.10;;;22.70;1.00;;;;;;2610338;54;20406;-63
2024/03/04 08:48:10;;;;;;;5.10;4.90;;;22.80;1.00;;;;;;2610774;54;20978;-63
2024/03/04 08:50:36;;;;;;;5.23;5.03;;;22.70;1.00;;;;;;2610363;47;20208;-63
2024/03/04 08:53:02;;;;;;;5.10;4.90;;;22.70;1.00;;;;;;2609826;54;20151;-64
2024/03/04 08:55:27;;;;;;;4.63;4.50;;;22.70;1.00;;;;;;2609319;54;20162;-63
2024/03/04 08:57:54;;;;;;;4.80;4.60;;;22.70;1.00;;;;;;2610598;54;21288;-63
2024/03/04 09:00:20;;;;;;;5.90;5.70;;;22.70;1.00;;;;;;2610410;54;20153;-63
2024/03/04 09:02:45;;;;;;;4.80;4.60;;;22.70;1.00;;;;;;2609538;54;20400;-63
2024/03/04 09:05:11;;;;;;;5.53;5.33;;;22.70;1.00;;;;;;2609674;47;20417;-63
2024/03/04 09:07:37;;;;;;;5.00;4.80;;;22.70;1.00;;;;;;2610544;54;20143;-63
2024/03/04 09:10:04;;;;;;;5.07;4.87;;;22.70;1.00;;;;;;2608728;54;20151;-63
2024/03/04 09:12:33;;;;;;;4.40;4.30;;;22.70;1.00;;;;;;2610560;54;20210;-64
2024/03/04 09:14:58;;;;;;;5.10;4.90;;;22.70;1.00;;;;;;2611041;54;20453;-64
2024/03/04 09:17:24;;;;;;;4.80;4.60;;;22.70;1.00;;;;;;2610537;54;20391;-64
2024/03/04 09:19:50;;;;;;;4.67;4.53;;;22.70;1.00;;;;;;2610700;54;20151;-64
2024/03/04 09:22:15;;;;;;;4.90;4.77;;;22.70;1.00;;;;;;2610928;54;20155;-64
2024/03/04 09:24:44;;;;;;;4.20;4.10;;;22.70;1.00;;;;;;2610710;54;20147;-65
2024/03/04 09:27:10;;;;;;;4.47;4.37;;;22.70;1.00;;;;;;2610811;54;20150;-64
2024/03/04 09:29:36;;;;;;;4.90;4.70;;;22.70;1.00;;;;;;2610367;54;20403;-64
2024/03/04 09:32:01;;;;;;;4.90;4.70;;;22.70;1.00;;;;;;2608775;54;20156;-64
2024/03/04 09:34:27;;;;;;;5.23;5.03;;;22.70;1.00;;;;;;2610088;54;20174;-62
2024/03/04 09:36:53;;;;;;;5.00;4.80;;;22.70;1.00;;;;;;2609640;54;20177;-64
2024/03/04 09:39:18;;;;;;;5.17;4.97;;;22.70;1.00;;;;;;2611147;54;20156;-78
2024/03/04 09:41:44;;;;;;;5.03;4.83;;;22.70;1.00;;;;;;2610329;54;20164;-78
2024/03/04 09:44:10;;;;;;;5.40;5.20;;;22.70;1.00;;;;;;2610938;54;20173;-78
2024/03/04 09:46:40;;;;;;;4.80;4.60;;;22.70;1.00;;;;;;2611405;54;20155;-77
2024/03/04 09:49:08;;;;;;;5.70;5.50;;;22.70;1.00;;;;;;2611306;39;20627;-66
2024/03/04 09:51:36;;;;;;;5.00;4.80;;;22.70;1.00;;;;;;2609887;54;20435;-67
2024/03/04 09:54:03;;;;;;;5.40;5.20;;;22.70;1.00;;;;;;2609855;54;20419;-66
2024/03/04 09:56:29;;;;;;;5.63;5.43;;;22.70;1.00;;;;;;2611728;39;20823;-66
2024/03/04 09:58:55;;;;;;;4.40;4.30;;;22.70;1.00;;;;;;2610062;54;20519;-66
2024/03/04 10:01:22;;;;;;;4.10;4.00;;;22.70;1.00;;;;;;2608678;54;20170;-66
2024/03/04 10:03:50;;;;;;;4.50;4.40;;;22.70;1.00;;;;;;2610727;54;20429;-66
2024/03/04 10:06:18;;;;;;;4.40;4.30;;;22.70;1.00;;;;;;2610931;39;21158;-67
2024/03/04 10:08:43;;;;;;;5.33;5.13;;;22.70;1.00;;;;;;2609377;54;20411;-67
2024/03/04 10:11:09;;;;;;;4.73;4.57;;;22.70;1.00;;;;;;2610445;54;20470;-66
2024/03/04 10:13:35;;;;;;;5.00;4.80;;;22.70;1.00;;;;;;2609770;54;20174;-67
2024/03/04 10:16:01;;;;;;;4.53;4.43;;;22.70;1.00;;;;;;2609949;54;20193;-66
2024/03/04 10:18:27;;;;;;;4.70;4.50;;;22.70;1.00;;;;;;2609880;47;20427;-67
2024/03/04 10:20:55;;;;;;;5.37;5.17;;;22.70;1.00;;;;;;2627660;36;20195;-66
2024/03/04 10:23:23;;;;;;;4.60;4.50;;;22.70;1.00;;;;;;2609532;54;20158;-67
2024/03/04 10:26:08;;;;;;;5.00;4.80;;;22.70;1.00;;;;;;2610334;54;21008;-66
2024/03/04 10:28:41;;;;;;;5.10;4.90;;;22.70;1.00;;;;;;2610579;39;20790;-65
2024/03/04 10:31:15;;;;;;;5.30;5.10;;;22.70;1.00;;;;;;2610858;54;20952;-66
2024/03/04 10:33:41;;;;;;;5.37;5.17;;;22.70;1.00;;;;;;2611470;39;20505;-66
2024/03/04 10:36:21;;;;;;;5.03;4.83;;;22.70;1.00;;;;;;2610232;54;20454;-66
2024/03/04 10:38:47;;;;;;;4.73;4.60;;;22.70;1.00;;;;;;2609379;54;21009;-66
2024/03/04 10:41:17;;;;;;;4.63;4.53;;;22.70;1.00;;;;;;2611224;54;20516;-66
2024/03/04 10:43:44;;;;;;;5.00;4.80;;;22.70;1.00;;;;;;2611578;54;20453;-70
2024/03/04 10:46:10;;;;;;;7.20;6.90;;;22.70;1.00;;;;;;2610518;54;20428;-66
2024/03/04 10:48:38;;;;;;;4.80;4.60;;;22.70;1.00;;;;;;2609937;54;20419;-63
2024/03/04 10:51:05;;;;;;;5.03;4.83;;;22.70;1.00;;;;;;2609382;54;21069;-64
2024/03/04 10:53:30;;;;;;;4.90;4.70;;;22.70;1.00;;;;;;2610248;54;20453;-63
2024/03/04 10:56:05;;;;;;;4.97;4.77;;;22.70;1.00;;;;;;2611484;54;20924;-65
2024/03/04 10:58:37;;;;;;;4.50;4.40;;;22.70;1.00;;;;;;2610618;39;20459;-67
2024/03/04 11:01:10;;;;;;;4.50;4.40;;;22.70;1.00;;;;;;2611132;54;20439;-72
2024/03/04 11:03:41;;;;;;;4.60;4.50;;;22.70;1.00;;;;;;2610147;54;20441;-71
2024/03/04 11:06:14;;;;;;;5.00;4.80;;;22.70;1.00;;;;;;2611500;54;20384;-71
2024/03/04 11:08:47;;;;;;;4.70;4.60;;;22.70;1.00;;;;;;2609809;54;20442;-71
2024/03/04 11:11:16;;;;;;;4.70;4.60;;;22.70;1.00;;;;;;2610489;54;20402;-71
2024/03/04 11:13:49;;;;;;;4.87;4.67;;;22.70;1.00;;;;;;2611015;54;21104;-71
2024/03/04 11:16:24;;;;;;;4.60;4.50;;;22.70;1.00;;;;;;2612274;54;20403;-71
2024/03/04 11:19:02;;;;;;;4.90;4.70;;;22.70;1.00;;;;;;2609556;54;20434;-70
2024/03/04 11:21:28;;;;;;;4.50;4.40;;;22.70;1.00;;;;;;2611409;54;20416;-70
2024/03/04 11:23:54;;;;;;;4.53;4.43;;;22.70;1.00;;;;;;2612057;39;20778;-71
2024/03/04 11:26:22;;;;;;;4.60;4.50;;;22.70;1.00;;;;;;2610781;46;20545;-70
2024/03/04 11:28:49;;;;;;;4.90;4.70;;;22.70;1.00;;;;;;2611131;54;20238;-71
2024/03/04 11:31:27;;;;;;;4.90;4.70;;;22.70;1.00;;;;;;2611043;39;20690;-70
2024/03/04 11:34:05;;;;;;;4.50;4.40;;;22.70;1.00;;;;;;2611016;54;20388;-70
2024/03/04 11:36:33;;;;;;;5.30;5.10;;;22.70;1.00;;;;;;2610868;54;20415;-72
2024/03/04 11:39:03;;;;;;;4.50;4.40;;;22.70;1.00;;;;;;2610708;54;20423;-71
2024/03/04 11:41:47;;;;;;;4.20;4.10;;;22.70;1.00;;;;;;2611833;54;20429;-71
2024/03/04 11:44:14;;;;;;;4.40;4.30;;;22.70;1.00;;;;;;2611562;54;20518;-71
2024/03/04 11:46:44;;;;;;;4.50;4.40;;;22.70;1.00;;;;;;2611789;54;20484;-71
2024/03/04 11:49:29;;;;;;;4.20;4.10;;;22.70;1.00;;;;;;2611696;54;20507;-69
2024/03/04 11:52:01;;;;;;;4.43;4.33;;;22.70;1.00;;;;;;2611649;54;20398;-69
2024/03/04 11:54:34;;;;;;;4.40;4.30;;;22.70;1.00;;;;;;2611578;39;20838;-69
2024/03/04 11:57:00;;;;;;;4.50;4.40;;;22.70;1.00;;;;;;2611170;54;20390;-69
2024/03/04 11:59:27;;;;;;;4.60;4.50;;;22.70;1.00;;;;;;2610986;54;20408;-69
2024/03/04 12:01:53;;;;;;;4.37;4.27;;;22.70;1.00;;;;;;2610998;47;21097;-68
2024/03/04 12:04:22;;;;;;;4.20;4.10;;;22.70;1.00;;;;;;2610170;54;20419;-68
2024/03/04 12:06:48;;;;;;;4.27;4.17;;;22.70;1.00;;;;;;2609772;54;20830;-68
2024/03/04 12:09:23;;;;;;;4.50;4.40;;;22.70;1.00;;;;;;2611382;54;20393;-74
2024/03/04 12:11:48;;;;;;;4.37;4.27;;;22.70;1.00;;;;;;2608915;54;21027;-75
2024/03/04 12:14:14;;;;;;;4.40;4.30;;;22.70;1.00;;;;;;2610997;54;20420;-75
2024/03/04 12:16:40;;;;;;;4.50;4.40;;;22.80;1.00;;;;;;2611129;54;20157;-75
2024/03/04 12:19:06;;;;;;;4.30;4.20;;;22.90;1.00;;;;;;2611627;54;20154;-76
2024/03/04 12:21:32;;;;;;;3.90;3.80;;;23.10;1.00;;;;;;2610935;54;20417;-75
2024/03/04 12:23:58;;;;;;;4.40;4.30;;;23.20;1.00;;;;;;2611743;54;20151;-75
2024/03/04 12:26:23;;;;;;;5.00;4.83;;;23.40;1.00;;;;;;2611420;54;20438;-75
2024/03/04 12:29:09;;;;;;;4.40;4.30;;;23.60;1.00;;;;;;2610544;54;20403;-75
2024/03/04 12:31:38;;;;;;;4.30;4.20;;;23.90;1.00;;;;;;2609697;54;20147;-75
2024/03/04 12:34:05;;;;;;;5.23;5.03;;;24.20;1.00;;;;;;2610629;39;20885;-75
2024/03/04 12:36:31;;;;;;;3.80;3.70;;;24.50;1.00;;;;;;2612313;54;20918;-74
2024/03/04 12:38:57;;;;;;;4.20;4.10;;;24.70;1.00;;;;;;2610340;54;20562;-75
2024/03/04 12:41:26;;;;;;;4.60;4.50;;;24.90;1.00;;;;;;2611163;54;20534;-75
2024/03/04 12:43:55;;;;;;;4.43;4.33;;;25.10;1.00;;;;;;2611221;54;20420;-76
2024/03/04 12:46:22;;;;;;;5.67;5.40;;;25.40;1.00;;;;;;2611121;54;20406;-75
2024/03/04 12:48:49;;;;;;;6.20;6.00;;;25.50;1.00;;;;;;2609370;54;20436;-76
2024/03/04 12:51:16;;;;;;;4.73;4.60;;;25.70;1.00;;;;;;2608740;54;20416;-77
2024/03/04 12:53:42;;;;;;;5.00;4.80;;;25.90;1.00;;;;;;2608742;54;21077;-77
2024/03/04 12:56:09;;;;;;;4.33;4.23;;;26.00;1.00;;;;;;2609900;54;20433;-78